Terminal Aerodrome Forecast
Issued by NWS

Home | Current Version | Previous Version | Text Only | Print | Product List | Glossary On
Versions: 1 2 3 4 5 6 7 8 9 10 11 12 13 14 15 16 17 18 19 20 21 22 23 24 25 26 27 28 29 30 31 32 33 34 35 36 37 38 39 40 41 42 43 44 45 46 47 48 49 50
000
FTUS43 KMKX 070607 AAA
TAFUES
TAF AMD
KUES 070607Z 0706/0806 VRB03KT 1/4SM FG OVC002
     FM070800 15004KT 2SM BR BKN004
      TEMPO 0708/0709 1/2SM FG BKN002
     FM070900 16005KT 4SM BR SCT004
      TEMPO 0709/0710 2SM BR BKN004
     FM071300 18007KT 6SM BR SCT200
     FM071500 19011G18KT P6SM SCT100
     FM071800 19015G23KT P6SM SCT045
     FM080000 18009KT P6SM BKN080=

USA.gov is the U.S. government's official web portal to all federal, state and local government web resources and services.